sensor_id;sensor_type;location;lat;lon;timestamp;temperature;humidity
1259;DHT22;619;51.472;6.628;2023-05-10T00:00:41;19.70;87.90
1259;DHT22;619;51.472;6.628;2023-05-10T00:03:09;19.60;87.60
1259;DHT22;619;51.472;6.628;2023-05-10T00:05:34;19.50;87.70
1259;DHT22;619;51.472;6.628;2023-05-10T00:08:02;19.40;87.40
1259;DHT22;619;51.472;6.628;2023-05-10T00:10:31;19.30;87.70
1259;DHT22;619;51.472;6.628;2023-05-10T00:12:59;19.30;87.80
1259;DHT22;619;51.472;6.628;2023-05-10T00:15:27;19.20;87.80
1259;DHT22;619;51.472;6.628;2023-05-10T00:17:52;19.20;88.00
1259;DHT22;619;51.472;6.628;2023-05-10T00:20:23;19.10;88.20
1259;DHT22;619;51.472;6.628;2023-05-10T00:22:48;19.10;88.30
1259;DHT22;619;51.472;6.628;2023-05-10T00:25:19;19.10;88.50
1259;DHT22;619;51.472;6.628;2023-05-10T00:27:47;19.00;88.50
1259;DHT22;619;51.472;6.628;2023-05-10T00:30:12;19.10;89.50
1259;DHT22;619;51.472;6.628;2023-05-10T00:32:38;19.10;88.90
1259;DHT22;619;51.472;6.628;2023-05-10T00:35:06;19.10;88.80
1259;DHT22;619;51.472;6.628;2023-05-10T00:37:32;19.10;88.80
1259;DHT22;619;51.472;6.628;2023-05-10T00:39:58;19.20;88.70
1259;DHT22;619;51.472;6.628;2023-05-10T00:42:26;19.20;88.70
1259;DHT22;619;51.472;6.628;2023-05-10T00:44:52;19.20;88.80
1259;DHT22;619;51.472;6.628;2023-05-10T00:47:17;19.30;88.80
1259;DHT22;619;51.472;6.628;2023-05-10T00:49:46;19.30;88.60
1259;DHT22;619;51.472;6.628;2023-05-10T00:52:11;19.30;88.60
1259;DHT22;619;51.472;6.628;2023-05-10T00:54:38;19.30;88.50
1259;DHT22;619;51.472;6.628;2023-05-10T00:57:04;19.40;88.40
1259;DHT22;619;51.472;6.628;2023-05-10T00:59:34;19.40;88.20
1259;DHT22;619;51.472;6.628;2023-05-10T01:02:02;19.40;88.20
1259;DHT22;619;51.472;6.628;2023-05-10T01:04:28;19.30;88.00
1259;DHT22;619;51.472;6.628;2023-05-10T01:06:54;19.30;88.00
1259;DHT22;619;51.472;6.628;2023-05-10T01:12:51;19.20;88.00
1259;DHT22;619;51.472;6.628;2023-05-10T01:15:17;19.20;87.90
1259;DHT22;619;51.472;6.628;2023-05-10T01:17:45;19.20;88.00
1259;DHT22;619;51.472;6.628;2023-05-10T01:20:12;19.20;88.00
1259;DHT22;619;51.472;6.628;2023-05-10T01:33:18;19.30;88.00
1259;DHT22;619;51.472;6.628;2023-05-10T01:38:38;19.30;87.90
1259;DHT22;619;51.472;6.628;2023-05-10T01:46:27;19.30;87.80
1259;DHT22;619;51.472;6.628;2023-05-10T01:48:58;19.30;87.70
1259;DHT22;619;51.472;6.628;2023-05-10T01:51:27;19.30;87.70
1259;DHT22;619;51.472;6.628;2023-05-10T01:54:00;19.40;87.70
1259;DHT22;619;51.472;6.628;2023-05-10T01:56:29;19.40;87.80
1259;DHT22;619;51.472;6.628;2023-05-10T01:58:56;19.40;87.60
1259;DHT22;619;51.472;6.628;2023-05-10T02:01:27;19.40;87.50
1259;DHT22;619;51.472;6.628;2023-05-10T02:03:53;19.50;87.60
1259;DHT22;619;51.472;6.628;2023-05-10T02:06:20;19.50;87.60
1259;DHT22;619;51.472;6.628;2023-05-10T02:08:52;19.50;87.50
1259;DHT22;619;51.472;6.628;2023-05-10T02:11:19;19.50;87.50
1259;DHT22;619;51.472;6.628;2023-05-10T02:13:49;19.50;87.40
1259;DHT22;619;51.472;6.628;2023-05-10T02:16:23;19.50;87.30
1259;DHT22;619;51.472;6.628;2023-05-10T02:18:50;19.50;88.10
1259;DHT22;619;51.472;6.628;2023-05-10T02:21:17;19.50;87.40
1259;DHT22;619;51.472;6.628;2023-05-10T02:23:46;19.50;87.40
1259;DHT22;619;51.472;6.628;2023-05-10T02:26:16;19.50;87.50
1259;DHT22;619;51.472;6.628;2023-05-10T02:28:44;19.50;87.50
1259;DHT22;619;51.472;6.628;2023-05-10T02:31:11;19.50;87.40
1259;DHT22;619;51.472;6.628;2023-05-10T02:33:39;19.50;87.40
1259;DHT22;619;51.472;6.628;2023-05-10T02:36:11;19.50;87.30
1259;DHT22;619;51.472;6.628;2023-05-10T02:38:38;19.50;87.30
1259;DHT22;619;51.472;6.628;2023-05-10T02:41:08;19.50;87.20
1259;DHT22;619;51.472;6.628;2023-05-10T02:43:34;19.50;87.20
1259;DHT22;619;51.472;6.628;2023-05-10T02:46:01;19.50;87.40
1259;DHT22;619;51.472;6.628;2023-05-10T02:48:27;19.50;87.40
1259;DHT22;619;51.472;6.628;2023-05-10T02:50:55;19.50;87.30
1259;DHT22;619;51.472;6.628;2023-05-10T02:53:27;19.50;87.30
1259;DHT22;619;51.472;6.628;2023-05-10T02:56:04;19.50;87.30
1259;DHT22;619;51.472;6.628;2023-05-10T02:58:34;19.50;87.30
1259;DHT22;619;51.472;6.628;2023-05-10T03:01:05;19.50;87.30
1259;DHT22;619;51.472;6.628;2023-05-10T03:03:33;19.50;87.30
1259;DHT22;619;51.472;6.628;2023-05-10T03:06:03;19.50;87.40
1259;DHT22;619;51.472;6.628;2023-05-10T03:08:29;19.50;87.30
1259;DHT22;619;51.472;6.628;2023-05-10T03:16:12;19.50;87.40
1259;DHT22;619;51.472;6.628;2023-05-10T03:18:48;19.50;87.40
1259;DHT22;619;51.472;6.628;2023-05-10T03:21:17;19.60;87.40
1259;DHT22;619;51.472;6.628;2023-05-10T03:23:47;19.60;87.30
1259;DHT22;619;51.472;6.628;2023-05-10T03:26:23;19.60;87.30
1259;DHT22;619;51.472;6.628;2023-05-10T03:28:52;19.60;87.30
1259;DHT22;619;51.472;6.628;2023-05-10T03:31:18;19.60;87.50
1259;DHT22;619;51.472;6.628;2023-05-10T03:33:53;19.60;87.50
1259;DHT22;619;51.472;6.628;2023-05-10T03:36:19;19.60;87.40
1259;DHT22;619;51.472;6.628;2023-05-10T03:38:50;19.60;87.40
1259;DHT22;619;51.472;6.628;2023-05-10T03:41:15;19.60;87.20
1259;DHT22;619;51.472;6.628;2023-05-10T03:43:41;19.60;87.30
1259;DHT22;619;51.472;6.628;2023-05-10T03:46:07;19.60;87.30
1259;DHT22;619;51.472;6.628;2023-05-10T03:48:32;19.60;87.30
1259;DHT22;619;51.472;6.628;2023-05-10T03:51:01;19.60;87.40
1259;DHT22;619;51.472;6.628;2023-05-10T03:53:26;19.60;87.50
1259;DHT22;619;51.472;6.628;2023-05-10T03:55:54;19.60;87.50
1259;DHT22;619;51.472;6.628;2023-05-10T03:58:22;19.60;87.50
1259;DHT22;619;51.472;6.628;2023-05-10T04:00:53;19.60;87.60
1259;DHT22;619;51.472;6.628;2023-05-10T04:03:21;19.60;87.50
1259;DHT22;619;51.472;6.628;2023-05-10T04:05:47;19.70;87.60
1259;DHT22;619;51.472;6.628;2023-05-10T04:08:12;19.70;87.50
1259;DHT22;619;51.472;6.628;2023-05-10T04:10:38;19.70;87.50
1259;DHT22;619;51.472;6.628;2023-05-10T04:13:06;19.70;87.40
1259;DHT22;619;51.472;6.628;2023-05-10T04:15:31;19.70;87.40
1259;DHT22;619;51.472;6.628;2023-05-10T04:17:59;19.70;87.40
1259;DHT22;619;51.472;6.628;2023-05-10T04:20:25;19.80;87.40
1259;DHT22;619;51.472;6.628;2023-05-10T04:22:51;19.80;87.50
1259;DHT22;619;51.472;6.628;2023-05-10T04:25:16;19.80;87.50
1259;DHT22;619;51.472;6.628;2023-05-10T04:27:42;19.80;87.50
1259;DHT22;619;51.472;6.628;2023-05-10T04:30:08;19.80;87.30
1259;DHT22;619;51.472;6.628;2023-05-10T04:32:36;19.80;87.40
1259;DHT22;619;51.472;6.628;2023-05-10T04:35:01;19.80;87.40
1259;DHT22;619;51.472;6.628;2023-05-10T04:37:31;19.80;87.50
1259;DHT22;619;51.472;6.628;2023-05-10T04:39:59;19.80;87.50
1259;DHT22;619;51.472;6.628;2023-05-10T04:42:25;19.80;87.60
1259;DHT22;619;51.472;6.628;2023-05-10T04:44:53;19.80;87.60
1259;DHT22;619;51.472;6.628;2023-05-10T04:47:19;19.70;87.70
1259;DHT22;619;51.472;6.628;2023-05-10T04:49:47;19.70;87.80
1259;DHT22;619;51.472;6.628;2023-05-10T04:52:12;19.70;87.70
1259;DHT22;619;51.472;6.628;2023-05-10T04:54:44;19.80;87.90
1259;DHT22;619;51.472;6.628;2023-05-10T04:57:12;19.70;87.80
1259;DHT22;619;51.472;6.628;2023-05-10T04:59:40;19.70;88.00
1259;DHT22;619;51.472;6.628;2023-05-10T05:02:06;19.80;88.10
1259;DHT22;619;51.472;6.628;2023-05-10T05:04:31;19.80;88.30
1259;DHT22;619;51.472;6.628;2023-05-10T05:06:57;19.80;88.20
1259;DHT22;619;51.472;6.628;2023-05-10T05:09:23;19.90;88.20
1259;DHT22;619;51.472;6.628;2023-05-10T05:11:48;19.90;88.10
1259;DHT22;619;51.472;6.628;2023-05-10T05:14:14;20.00;88.00
1259;DHT22;619;51.472;6.628;2023-05-10T05:16:39;20.00;87.80
1259;DHT22;619;51.472;6.628;2023-05-10T05:19:07;20.00;87.90
1259;DHT22;619;51.472;6.628;2023-05-10T05:21:33;20.10;88.00
1259;DHT22;619;51.472;6.628;2023-05-10T05:24:04;20.10;87.80
1259;DHT22;619;51.472;6.628;2023-05-10T05:26:32;20.10;87.50
1259;DHT22;619;51.472;6.628;2023-05-10T05:28:57;20.20;87.70
1259;DHT22;619;51.472;6.628;2023-05-10T05:31:26;20.20;87.60
1259;DHT22;619;51.472;6.628;2023-05-10T05:33:53;20.30;87.60
1259;DHT22;619;51.472;6.628;2023-05-10T05:36:19;20.30;87.60
1259;DHT22;619;51.472;6.628;2023-05-10T05:38:45;20.30;87.50
1259;DHT22;619;51.472;6.628;2023-05-10T05:41:13;20.40;87.50
1259;DHT22;619;51.472;6.628;2023-05-10T05:43:41;20.40;87.30
1259;DHT22;619;51.472;6.628;2023-05-10T05:46:06;20.40;87.20
1259;DHT22;619;51.472;6.628;2023-05-10T05:48:34;20.40;87.30
1259;DHT22;619;51.472;6.628;2023-05-10T05:51:00;20.40;87.20
1259;DHT22;619;51.472;6.628;2023-05-10T05:53:28;20.50;87.30
1259;DHT22;619;51.472;6.628;2023-05-10T05:55:56;20.50;87.30
1259;DHT22;619;51.472;6.628;2023-05-10T05:58:23;20.60;87.30
1259;DHT22;619;51.472;6.628;2023-05-10T06:00:51;20.60;87.10
1259;DHT22;619;51.472;6.628;2023-05-10T06:03:20;20.60;86.50
1259;DHT22;619;51.472;6.628;2023-05-10T06:05:46;20.50;86.10
1259;DHT22;619;51.472;6.628;2023-05-10T06:08:14;20.50;85.90
1259;DHT22;619;51.472;6.628;2023-05-10T06:10:42;20.50;85.80
1259;DHT22;619;51.472;6.628;2023-05-10T06:13:10;20.50;85.80
1259;DHT22;619;51.472;6.628;2023-05-10T06:15:38;20.50;85.70
1259;DHT22;619;51.472;6.628;2023-05-10T06:18:06;20.50;86.50
1259;DHT22;619;51.472;6.628;2023-05-10T06:20:32;20.40;85.70
1259;DHT22;619;51.472;6.628;2023-05-10T06:22:57;20.40;86.50
1259;DHT22;619;51.472;6.628;2023-05-10T06:25:28;20.50;86.00
1259;DHT22;619;51.472;6.628;2023-05-10T06:27:55;20.40;86.20
1259;DHT22;619;51.472;6.628;2023-05-10T06:30:26;20.40;85.90
1259;DHT22;619;51.472;6.628;2023-05-10T06:32:53;20.50;85.90
1259;DHT22;619;51.472;6.628;2023-05-10T06:35:22;20.50;85.90
1259;DHT22;619;51.472;6.628;2023-05-10T06:37:48;20.50;86.00
1259;DHT22;619;51.472;6.628;2023-05-10T06:40:16;20.50;86.00
1259;DHT22;619;51.472;6.628;2023-05-10T06:42:44;20.50;86.00
1259;DHT22;619;51.472;6.628;2023-05-10T06:45:11;20.50;86.10
1259;DHT22;619;51.472;6.628;2023-05-10T06:47:38;20.40;86.20
1259;DHT22;619;51.472;6.628;2023-05-10T06:50:09;20.50;86.30
1259;DHT22;619;51.472;6.628;2023-05-10T06:52:35;20.50;86.40
1259;DHT22;619;51.472;6.628;2023-05-10T06:55:01;20.60;86.40
1259;DHT22;619;51.472;6.628;2023-05-10T06:57:27;20.60;86.40
1259;DHT22;619;51.472;6.628;2023-05-10T06:59:53;20.60;86.40
1259;DHT22;619;51.472;6.628;2023-05-10T07:02:21;20.70;86.50
1259;DHT22;619;51.472;6.628;2023-05-10T07:04:48;20.70;86.50
1259;DHT22;619;51.472;6.628;2023-05-10T07:07:16;20.70;86.60
1259;DHT22;619;51.472;6.628;2023-05-10T07:09:42;20.80;86.70
1259;DHT22;619;51.472;6.628;2023-05-10T07:12:10;20.90;86.60
1259;DHT22;619;51.472;6.628;2023-05-10T07:14:35;20.90;86.50
1259;DHT22;619;51.472;6.628;2023-05-10T07:17:01;21.00;87.10
1259;DHT22;619;51.472;6.628;2023-05-10T07:19:29;21.00;86.50
1259;DHT22;619;51.472;6.628;2023-05-10T07:21:58;21.00;86.10
1259;DHT22;619;51.472;6.628;2023-05-10T07:24:23;21.10;86.20
1259;DHT22;619;51.472;6.628;2023-05-10T07:26:49;21.10;86.00
1259;DHT22;619;51.472;6.628;2023-05-10T07:29:15;21.10;85.90
1259;DHT22;619;51.472;6.628;2023-05-10T07:31:43;21.10;86.00
1259;DHT22;619;51.472;6.628;2023-05-10T07:34:11;21.10;85.80
1259;DHT22;619;51.472;6.628;2023-05-10T07:36:37;21.20;86.00
1259;DHT22;619;51.472;6.628;2023-05-10T07:39:05;21.20;86.10
1259;DHT22;619;51.472;6.628;2023-05-10T07:41:32;21.20;85.90
1259;DHT22;619;51.472;6.628;2023-05-10T07:43:58;21.20;86.10
1259;DHT22;619;51.472;6.628;2023-05-10T07:46:26;21.30;86.60
1259;DHT22;619;51.472;6.628;2023-05-10T07:48:54;21.40;87.10
1259;DHT22;619;51.472;6.628;2023-05-10T07:51:20;21.60;87.40
1259;DHT22;619;51.472;6.628;2023-05-10T07:53:47;21.70;86.90
1259;DHT22;619;51.472;6.628;2023-05-10T07:58:49;21.80;85.50
1259;DHT22;619;51.472;6.628;2023-05-10T08:01:14;21.90;85.40
1259;DHT22;619;51.472;6.628;2023-05-10T08:03:42;21.80;84.10
1259;DHT22;619;51.472;6.628;2023-05-10T08:06:10;21.70;83.30
1259;DHT22;619;51.472;6.628;2023-05-10T08:08:36;21.60;82.90
1259;DHT22;619;51.472;6.628;2023-05-10T08:11:04;21.40;82.80
1259;DHT22;619;51.472;6.628;2023-05-10T08:13:30;21.30;82.80
1259;DHT22;619;51.472;6.628;2023-05-10T08:15:56;21.20;83.70
1259;DHT22;619;51.472;6.628;2023-05-10T08:18:24;21.20;85.20
1259;DHT22;619;51.472;6.628;2023-05-10T08:20:52;21.30;86.90
1259;DHT22;619;51.472;6.628;2023-05-10T08:23:18;21.50;86.90
1259;DHT22;619;51.472;6.628;2023-05-10T08:25:43;21.80;87.70
1259;DHT22;619;51.472;6.628;2023-05-10T08:28:11;22.10;87.90
1259;DHT22;619;51.472;6.628;2023-05-10T08:30:40;22.30;85.50
1259;DHT22;619;51.472;6.628;2023-05-10T08:33:05;22.40;84.30
1259;DHT22;619;51.472;6.628;2023-05-10T08:35:33;22.50;84.70
1259;DHT22;619;51.472;6.628;2023-05-10T08:38:00;22.70;85.30
1259;DHT22;619;51.472;6.628;2023-05-10T08:40:26;22.90;85.40
1259;DHT22;619;51.472;6.628;2023-05-10T08:43:07;23.10;84.00
1259;DHT22;619;51.472;6.628;2023-05-10T08:45:40;23.30;82.80
1259;DHT22;619;51.472;6.628;2023-05-10T08:48:11;23.40;83.30
1259;DHT22;619;51.472;6.628;2023-05-10T08:50:40;23.60;83.00
1259;DHT22;619;51.472;6.628;2023-05-10T08:53:13;23.70;82.40
1259;DHT22;619;51.472;6.628;2023-05-10T08:55:40;23.70;81.00
1259;DHT22;619;51.472;6.628;2023-05-10T08:58:08;23.70;80.10
1259;DHT22;619;51.472;6.628;2023-05-10T09:00:38;23.60;79.30
1259;DHT22;619;51.472;6.628;2023-05-10T09:03:05;23.50;79.10
1259;DHT22;619;51.472;6.628;2023-05-10T09:05:31;23.40;78.40
1259;DHT22;619;51.472;6.628;2023-05-10T09:08:01;23.30;78.40
1259;DHT22;619;51.472;6.628;2023-05-10T09:10:27;23.20;78.30
1259;DHT22;619;51.472;6.628;2023-05-10T09:12:55;23.10;78.30
1259;DHT22;619;51.472;6.628;2023-05-10T09:15:21;23.00;78.10
1259;DHT22;619;51.472;6.628;2023-05-10T09:17:49;22.90;78.50
1259;DHT22;619;51.472;6.628;2023-05-10T09:20:15;22.80;78.80
1259;DHT22;619;51.472;6.628;2023-05-10T09:22:43;22.70;79.60
1259;DHT22;619;51.472;6.628;2023-05-10T09:25:13;22.70;80.00
1259;DHT22;619;51.472;6.628;2023-05-10T09:27:47;22.70;80.10
1259;DHT22;619;51.472;6.628;2023-05-10T09:30:33;22.70;79.60
1259;DHT22;619;51.472;6.628;2023-05-10T09:32:59;22.60;78.90
1259;DHT22;619;51.472;6.628;2023-05-10T09:35:27;22.40;78.80
1259;DHT22;619;51.472;6.628;2023-05-10T09:37:55;22.30;79.10
1259;DHT22;619;51.472;6.628;2023-05-10T09:40:22;22.20;79.50
1259;DHT22;619;51.472;6.628;2023-05-10T09:45:19;22.10;80.00
1259;DHT22;619;51.472;6.628;2023-05-10T09:47:45;22.00;80.30
1259;DHT22;619;51.472;6.628;2023-05-10T09:50:11;22.00;80.90
1259;DHT22;619;51.472;6.628;2023-05-10T09:55:45;22.00;80.60
1259;DHT22;619;51.472;6.628;2023-05-10T09:58:13;21.90;80.60
1259;DHT22;619;51.472;6.628;2023-05-10T10:00:43;21.90;81.00
1259;DHT22;619;51.472;6.628;2023-05-10T10:03:14;21.90;81.10
1259;DHT22;619;51.472;6.628;2023-05-10T10:05:43;21.90;81.70
1259;DHT22;619;51.472;6.628;2023-05-10T10:08:09;22.00;81.60
1259;DHT22;619;51.472;6.628;2023-05-10T10:10:42;22.00;81.60
1259;DHT22;619;51.472;6.628;2023-05-10T10:13:10;22.10;81.30
1259;DHT22;619;51.472;6.628;2023-05-10T10:15:38;22.10;81.30
1259;DHT22;619;51.472;6.628;2023-05-10T10:18:05;22.10;81.80
1259;DHT22;619;51.472;6.628;2023-05-10T10:20:31;22.20;81.80
1259;DHT22;619;51.472;6.628;2023-05-10T10:22:59;22.20;81.00
1259;DHT22;619;51.472;6.628;2023-05-10T10:25:27;22.20;80.60
1259;DHT22;619;51.472;6.628;2023-05-10T10:35:57;22.10;80.10
1259;DHT22;619;51.472;6.628;2023-05-10T10:41:29;22.10;80.90
1259;DHT22;619;51.472;6.628;2023-05-10T10:50:07;22.40;81.80
1259;DHT22;619;51.472;6.628;2023-05-10T10:55:12;22.60;81.50
1259;DHT22;619;51.472;6.628;2023-05-10T11:05:34;22.50;79.20
1259;DHT22;619;51.472;6.628;2023-05-10T11:11:02;22.40;80.70
1259;DHT22;619;51.472;6.628;2023-05-10T11:15:58;22.70;82.00
1259;DHT22;619;51.472;6.628;2023-05-10T11:18:30;22.80;81.70
1259;DHT22;619;51.472;6.628;2023-05-10T11:21:02;23.00;81.10
1259;DHT22;619;51.472;6.628;2023-05-10T11:26:13;23.30;79.50
1259;DHT22;619;51.472;6.628;2023-05-10T11:28:46;23.30;78.00
1259;DHT22;619;51.472;6.628;2023-05-10T11:31:16;23.30;78.40
1259;DHT22;619;51.472;6.628;2023-05-10T11:33:47;23.40;78.60
1259;DHT22;619;51.472;6.628;2023-05-10T11:36:20;23.40;77.90
1259;DHT22;619;51.472;6.628;2023-05-10T11:38:46;23.40;78.10
1259;DHT22;619;51.472;6.628;2023-05-10T11:41:13;23.30;78.10
1259;DHT22;619;51.472;6.628;2023-05-10T11:43:40;23.30;78.30
1259;DHT22;619;51.472;6.628;2023-05-10T11:46:11;23.40;78.20
1259;DHT22;619;51.472;6.628;2023-05-10T11:48:39;23.30;77.60
1259;DHT22;619;51.472;6.628;2023-05-10T11:51:07;23.30;76.50
1259;DHT22;619;51.472;6.628;2023-05-10T11:53:33;23.30;77.00
1259;DHT22;619;51.472;6.628;2023-05-10T11:56:09;23.20;75.90
1259;DHT22;619;51.472;6.628;2023-05-10T11:58:39;23.20;77.70
1259;DHT22;619;51.472;6.628;2023-05-10T12:01:06;23.20;78.90
1259;DHT22;619;51.472;6.628;2023-05-10T12:03:33;23.30;78.40
1259;DHT22;619;51.472;6.628;2023-05-10T12:06:02;23.40;78.70
1259;DHT22;619;51.472;6.628;2023-05-10T12:08:29;23.50;78.00
1259;DHT22;619;51.472;6.628;2023-05-10T12:11:10;23.70;78.50
1259;DHT22;619;51.472;6.628;2023-05-10T12:13:42;23.90;77.90
1259;DHT22;619;51.472;6.628;2023-05-10T12:16:25;24.00;77.90
1259;DHT22;619;51.472;6.628;2023-05-10T12:18:55;24.10;76.50
1259;DHT22;619;51.472;6.628;2023-05-10T12:21:24;24.20;75.90
1259;DHT22;619;51.472;6.628;2023-05-10T12:23:54;24.30;76.50
1259;DHT22;619;51.472;6.628;2023-05-10T12:26:28;24.50;76.80
1259;DHT22;619;51.472;6.628;2023-05-10T12:29:15;24.60;76.40
1259;DHT22;619;51.472;6.628;2023-05-10T12:31:59;24.80;75.60
1259;DHT22;619;51.472;6.628;2023-05-10T12:34:32;25.00;76.30
1259;DHT22;619;51.472;6.628;2023-05-10T12:36:58;25.20;76.90
1259;DHT22;619;51.472;6.628;2023-05-10T12:39:26;25.60;76.30
1259;DHT22;619;51.472;6.628;2023-05-10T12:42:02;25.70;74.20
1259;DHT22;619;51.472;6.628;2023-05-10T12:44:33;25.90;72.90
1259;DHT22;619;51.472;6.628;2023-05-10T12:46:58;26.10;72.90
1259;DHT22;619;51.472;6.628;2023-05-10T12:49:28;26.30;70.90
1259;DHT22;619;51.472;6.628;2023-05-10T12:51:56;26.40;70.80
1259;DHT22;619;51.472;6.628;2023-05-10T12:54:24;26.70;70.70
1259;DHT22;619;51.472;6.628;2023-05-10T12:56:55;26.80;69.70
1259;DHT22;619;51.472;6.628;2023-05-10T12:59:23;27.00;70.20
1259;DHT22;619;51.472;6.628;2023-05-10T13:01:51;27.30;70.50
1259;DHT22;619;51.472;6.628;2023-05-10T13:04:16;27.60;67.00
1259;DHT22;619;51.472;6.628;2023-05-10T13:06:42;27.80;65.80
1259;DHT22;619;51.472;6.628;2023-05-10T13:09:10;27.90;64.00
1259;DHT22;619;51.472;6.628;2023-05-10T13:11:35;27.90;63.00
1259;DHT22;619;51.472;6.628;2023-05-10T13:14:01;27.80;61.40
1259;DHT22;619;51.472;6.628;2023-05-10T13:16:28;27.70;61.70
1259;DHT22;619;51.472;6.628;2023-05-10T13:18:54;27.60;63.50
1259;DHT22;619;51.472;6.628;2023-05-10T13:21:19;27.50;61.20
1259;DHT22;619;51.472;6.628;2023-05-10T13:23:45;27.20;60.70
1259;DHT22;619;51.472;6.628;2023-05-10T13:26:12;27.10;62.90
1259;DHT22;619;51.472;6.628;2023-05-10T13:28:37;27.00;62.30
1259;DHT22;619;51.472;6.628;2023-05-10T13:31:04;26.90;63.10
1259;DHT22;619;51.472;6.628;2023-05-10T13:33:30;26.90;61.30
1259;DHT22;619;51.472;6.628;2023-05-10T13:35:55;26.90;63.50
1259;DHT22;619;51.472;6.628;2023-05-10T13:38:23;26.90;61.90
1259;DHT22;619;51.472;6.628;2023-05-10T13:40:54;26.90;62.30
1259;DHT22;619;51.472;6.628;2023-05-10T13:43:23;26.90;62.10
1259;DHT22;619;51.472;6.628;2023-05-10T13:45:49;26.90;61.10
1259;DHT22;619;51.472;6.628;2023-05-10T13:48:17;27.00;61.90
1259;DHT22;619;51.472;6.628;2023-05-10T13:50:45;27.10;60.70
1259;DHT22;619;51.472;6.628;2023-05-10T13:53:13;27.10;61.60
1259;DHT22;619;51.472;6.628;2023-05-10T13:55:39;27.10;59.90
1259;DHT22;619;51.472;6.628;2023-05-10T13:58:07;27.10;60.30
1259;DHT22;619;51.472;6.628;2023-05-10T14:00:33;27.20;62.50
1259;DHT22;619;51.472;6.628;2023-05-10T14:03:03;27.60;62.00
1259;DHT22;619;51.472;6.628;2023-05-10T14:05:30;27.80;58.00
1259;DHT22;619;51.472;6.628;2023-05-10T14:07:56;28.10;58.10
1259;DHT22;619;51.472;6.628;2023-05-10T14:10:26;28.50;58.00
1259;DHT22;619;51.472;6.628;2023-05-10T14:12:52;28.80;56.20
1259;DHT22;619;51.472;6.628;2023-05-10T14:15:18;28.90;56.10
1259;DHT22;619;51.472;6.628;2023-05-10T14:17:43;29.00;56.00
1259;DHT22;619;51.472;6.628;2023-05-10T14:20:11;29.00;54.70
1259;DHT22;619;51.472;6.628;2023-05-10T14:22:37;29.00;55.30
1259;DHT22;619;51.472;6.628;2023-05-10T14:25:02;28.80;55.50
1259;DHT22;619;51.472;6.628;2023-05-10T14:27:28;28.80;55.70
1259;DHT22;619;51.472;6.628;2023-05-10T14:29:54;28.80;55.10
1259;DHT22;619;51.472;6.628;2023-05-10T14:32:22;28.90;55.70
1259;DHT22;619;51.472;6.628;2023-05-10T14:34:47;28.80;55.40
1259;DHT22;619;51.472;6.628;2023-05-10T14:37:14;28.70;54.90
1259;DHT22;619;51.472;6.628;2023-05-10T14:39:42;28.60;55.20
1259;DHT22;619;51.472;6.628;2023-05-10T14:42:08;28.40;55.20
1259;DHT22;619;51.472;6.628;2023-05-10T14:44:34;28.20;55.60
1259;DHT22;619;51.472;6.628;2023-05-10T14:46:59;27.90;55.90
1259;DHT22;619;51.472;6.628;2023-05-10T14:49:30;27.70;56.40
1259;DHT22;619;51.472;6.628;2023-05-10T14:51:56;27.40;56.90
1259;DHT22;619;51.472;6.628;2023-05-10T14:54:24;27.10;56.90
1259;DHT22;619;51.472;6.628;2023-05-10T14:56:49;26.90;57.60
1259;DHT22;619;51.472;6.628;2023-05-10T14:59:15;26.60;57.00
1259;DHT22;619;51.472;6.628;2023-05-10T15:01:43;26.20;56.60
1259;DHT22;619;51.472;6.628;2023-05-10T15:04:13;25.70;57.00
1259;DHT22;619;51.472;6.628;2023-05-10T15:06:41;25.30;57.90
1259;DHT22;619;51.472;6.628;2023-05-10T15:09:07;24.80;58.10
1259;DHT22;619;51.472;6.628;2023-05-10T15:11:32;24.20;59.20
1259;DHT22;619;51.472;6.628;2023-05-10T15:13:58;23.90;60.90
1259;DHT22;619;51.472;6.628;2023-05-10T15:16:26;23.50;61.90
1259;DHT22;619;51.472;6.628;2023-05-10T15:18:54;23.30;63.40
1259;DHT22;619;51.472;6.628;2023-05-10T15:21:24;23.10;65.00
1259;DHT22;619;51.472;6.628;2023-05-10T15:23:50;22.80;67.00
1259;DHT22;619;51.472;6.628;2023-05-10T15:26:15;22.60;69.00
1259;DHT22;619;51.472;6.628;2023-05-10T15:28:41;22.40;70.10
1259;DHT22;619;51.472;6.628;2023-05-10T15:31:07;22.20;71.00
1259;DHT22;619;51.472;6.628;2023-05-10T15:33:36;21.90;71.80
1259;DHT22;619;51.472;6.628;2023-05-10T15:36:02;21.60;72.80
1259;DHT22;619;51.472;6.628;2023-05-10T15:38:31;21.40;74.70
1259;DHT22;619;51.472;6.628;2023-05-10T15:40:57;21.30;76.20
1259;DHT22;619;51.472;6.628;2023-05-10T15:43:23;21.10;77.20
1259;DHT22;619;51.472;6.628;2023-05-10T15:45:49;21.00;78.00
1259;DHT22;619;51.472;6.628;2023-05-10T15:48:17;20.80;78.50
1259;DHT22;619;51.472;6.628;2023-05-10T15:50:42;20.70;79.30
1259;DHT22;619;51.472;6.628;2023-05-10T15:53:08;20.60;79.70
1259;DHT22;619;51.472;6.628;2023-05-10T15:55:35;20.50;80.20
1259;DHT22;619;51.472;6.628;2023-05-10T15:58:01;20.40;80.60
1259;DHT22;619;51.472;6.628;2023-05-10T16:00:29;20.50;81.20
1259;DHT22;619;51.472;6.628;2023-05-10T16:02:57;20.50;81.70
1259;DHT22;619;51.472;6.628;2023-05-10T16:05:23;20.50;81.80
1259;DHT22;619;51.472;6.628;2023-05-10T16:07:49;20.60;82.00
1259;DHT22;619;51.472;6.628;2023-05-10T16:10:14;20.70;82.10
1259;DHT22;619;51.472;6.628;2023-05-10T16:12:40;20.70;81.90
1259;DHT22;619;51.472;6.628;2023-05-10T16:15:07;20.70;82.10
1259;DHT22;619;51.472;6.628;2023-05-10T16:17:33;20.80;82.00
1259;DHT22;619;51.472;6.628;2023-05-10T16:19:58;20.80;81.80
1259;DHT22;619;51.472;6.628;2023-05-10T16:22:24;20.90;81.60
1259;DHT22;619;51.472;6.628;2023-05-10T16:24:54;20.90;81.70
1259;DHT22;619;51.472;6.628;2023-05-10T16:27:22;21.00;81.90
1259;DHT22;619;51.472;6.628;2023-05-10T16:29:55;21.00;81.50
1259;DHT22;619;51.472;6.628;2023-05-10T16:32:25;21.00;81.30
1259;DHT22;619;51.472;6.628;2023-05-10T16:34:51;21.10;80.90
1259;DHT22;619;51.472;6.628;2023-05-10T16:37:19;21.10;81.00
1259;DHT22;619;51.472;6.628;2023-05-10T16:39:45;21.10;80.00
1259;DHT22;619;51.472;6.628;2023-05-10T16:42:10;21.10;79.50
1259;DHT22;619;51.472;6.628;2023-05-10T16:44:38;21.00;79.10
1259;DHT22;619;51.472;6.628;2023-05-10T16:47:04;20.90;79.30
1259;DHT22;619;51.472;6.628;2023-05-10T16:49:29;20.90;79.60
1259;DHT22;619;51.472;6.628;2023-05-10T16:51:57;20.80;80.00
1259;DHT22;619;51.472;6.628;2023-05-10T16:54:27;20.80;81.00
1259;DHT22;619;51.472;6.628;2023-05-10T16:56:54;20.90;80.40
1259;DHT22;619;51.472;6.628;2023-05-10T16:59:22;20.90;80.40
1259;DHT22;619;51.472;6.628;2023-05-10T17:01:48;21.00;80.40
1259;DHT22;619;51.472;6.628;2023-05-10T17:04:14;21.00;80.20
1259;DHT22;619;51.472;6.628;2023-05-10T17:06:44;21.00;79.90
1259;DHT22;619;51.472;6.628;2023-05-10T17:09:13;21.00;79.40
1259;DHT22;619;51.472;6.628;2023-05-10T17:11:41;21.00;79.30
1259;DHT22;619;51.472;6.628;2023-05-10T17:14:09;21.00;79.30
1259;DHT22;619;51.472;6.628;2023-05-10T17:16:37;21.00;79.30
1259;DHT22;619;51.472;6.628;2023-05-10T17:19:02;21.00;79.40
1259;DHT22;619;51.472;6.628;2023-05-10T17:21:30;21.00;79.60
1259;DHT22;619;51.472;6.628;2023-05-10T17:23:58;21.00;79.80
1259;DHT22;619;51.472;6.628;2023-05-10T17:26:24;21.00;79.50
1259;DHT22;619;51.472;6.628;2023-05-10T17:28:54;20.90;79.60
1259;DHT22;619;51.472;6.628;2023-05-10T17:31:25;20.90;79.70